Аэропорт: Бухта Провидения. Провидения

ICAO: UHMD

METAR:
2018/07/22 20:00
UHMD 222000Z 01002MPS 8000 -DZ OVC013 10/08 Q1016 RMK QBB410 MT OBSC QFE761/1015
METAR:
Информация по данной станции не доступна